Aérodrome :
LOGIN :

S'inscrire | Disclaimer

   EN    FR    IT 

 










Légende :    VFR   VFR Marginal   IFR   IFR Intensif   IFR Très Intensif
Visi : 
Plafond : 
>= 8 km
>= 3000ft
5 à 8 km
1000 à 3000 ft
1500m à 5 km
500 à 1000 ft
800 à 1500m
200 à 500 ft
< 800m
< 200 ft
Symboles :   Orages  Brouillard  Fortes neiges  Fortes précipitations  Vent > 20 kt
SIGMETs :   Divers  Orages  Givrage  Turbulence  Onde Orograph.  Cendres Volcan.







- Altitude de l'aérodrome : 101 ft
- Code IATA : GLO
- Voir les cartes d'approche


EGBJ - Gloucestershire

DERNIER METAR :
  • 301220Z 12013G24KT 090V150 9999 FEW035 17/02 Q0997

METARs EXPIRÉS :
  • 301150Z 12018KT CAVOK 17/03 Q0997
  • 301120Z 12015KT 080V140 CAVOK 16/03 Q0998
  • 301050Z 12016KT CAVOK 16/03 Q0998
  • 301020Z 12014G24KT CAVOK 16/03 Q0999
  • 300950Z 12013G28KT CAVOK 15/04 Q0999

TAF TAF EGBJ
Valide du 30 à 12h jusqu'au 30 à 19h UTC


301059Z 3012/3019 12014KT 9999 FEW045
TEMPO 3012/3017 12016G26KT
PROB30
TEMPO 3013/3018 9000 -SHRA
Pas de NOTAMs connus pour ce terrain.



MET'MAP, la Météo Aéronautique d'un coup d'oeil ! - Copyright ORBIFLY Décembre 2007 - Disclaimer

ORBIFLY MET'MAP TEAM :

Programmation & Développement : Alexandra Zaïnal
Conception & Développement : Baudouin d'Aumeries
Co-Programmation & Développement : Marc-Olivier Méhu
Soutien technique & logistique : Manuel Goepfert

Contact : metmap@orbifly.com




SOURCES & CREDITS :

   NOAA